createdAt,value
2018-10-21T00:00:41.941Z,16.40
2018-10-21T00:03:10.587Z,16.40
2018-10-21T00:05:38.878Z,16.60
2018-10-21T00:08:07.228Z,16.60
2018-10-21T00:10:35.545Z,16.40
2018-10-21T00:13:03.870Z,16.30
2018-10-21T00:15:32.275Z,16.40
2018-10-21T00:18:00.426Z,16.50
2018-10-21T00:20:28.738Z,16.50
2018-10-21T00:22:57.080Z,16.40
2018-10-21T00:25:25.332Z,16.40
2018-10-21T00:27:53.578Z,16.20
2018-10-21T00:30:21.858Z,16.20
2018-10-21T00:32:51.469Z,16.30
2018-10-21T00:35:19.798Z,15.90
2018-10-21T00:37:48.134Z,15.90
2018-10-21T00:40:16.417Z,16.10
2018-10-21T00:42:44.698Z,16.20
2018-10-21T00:45:12.993Z,16.40
2018-10-21T00:47:41.226Z,16.60
2018-10-21T00:50:10.586Z,16.50
2018-10-21T00:52:39.006Z,16.60
2018-10-21T00:55:08.368Z,16.40
2018-10-21T00:57:36.674Z,16.50
2018-10-21T01:00:07.090Z,16.70
2018-10-21T01:02:35.374Z,16.70
2018-10-21T01:05:03.797Z,16.60
2018-10-21T01:07:32.071Z,16.60
2018-10-21T01:10:00.369Z,16.50
2018-10-21T01:12:28.622Z,16.60
2018-10-21T01:14:57.178Z,16.60
2018-10-21T01:17:25.412Z,16.50
2018-10-21T01:19:53.880Z,16.50
2018-10-21T01:22:22.279Z,16.60
2018-10-21T01:24:50.585Z,16.90
2018-10-21T01:27:18.831Z,16.80
2018-10-21T01:29:47.821Z,16.80
2018-10-21T01:32:17.509Z,16.70
2018-10-21T01:34:46.013Z,16.60
2018-10-21T01:37:14.642Z,16.40
2018-10-21T01:40:52.965Z,16.20
2018-10-21T01:43:22.457Z,16.00
2018-10-21T01:45:50.734Z,15.40
2018-10-21T01:48:20.233Z,15.90
2018-10-21T01:50:48.555Z,16.20
2018-10-21T01:53:17.532Z,16.40
2018-10-21T01:55:45.781Z,16.30
2018-10-21T01:58:14.017Z,16.40
2018-10-21T02:00:42.715Z,16.60
2018-10-21T02:03:11.066Z,16.60
2018-10-21T02:05:39.753Z,16.40
2018-10-21T02:08:08.094Z,16.00
2018-10-21T02:10:36.516Z,16.00
2018-10-21T02:13:04.850Z,16.10
2018-10-21T02:15:33.132Z,16.20
2018-10-21T02:18:01.415Z,16.30
2018-10-21T02:20:29.741Z,16.50
2018-10-21T02:22:57.951Z,16.40
2018-10-21T02:25:26.206Z,16.10
2018-10-21T02:27:54.801Z,16.10
2018-10-21T02:30:26.250Z,16.30
2018-10-21T02:32:54.875Z,16.20
2018-10-21T02:35:23.343Z,16.00
2018-10-21T02:37:52.394Z,15.90
2018-10-21T02:41:34.848Z,16.20
2018-10-21T02:44:03.616Z,16.10
2018-10-21T02:46:32.313Z,15.80
2018-10-21T02:49:01.052Z,15.60
2018-10-21T02:51:29.294Z,15.60
2018-10-21T02:53:57.561Z,15.40
2018-10-21T02:56:25.782Z,15.30
2018-10-21T02:58:54.133Z,15.40
2018-10-21T03:01:22.476Z,15.70
2018-10-21T03:03:50.837Z,15.80
2018-10-21T03:06:19.290Z,16.00
2018-10-21T03:08:47.575Z,16.00
2018-10-21T03:11:15.876Z,16.10
2018-10-21T03:13:44.333Z,16.20
2018-10-21T03:16:12.632Z,16.00
2018-10-21T03:18:40.983Z,16.00
2018-10-21T03:21:09.327Z,16.10
2018-10-21T03:23:37.534Z,16.00
2018-10-21T03:26:05.835Z,16.10
2018-10-21T03:28:34.459Z,16.10
2018-10-21T03:31:02.907Z,16.20
2018-10-21T03:33:31.721Z,16.40
2018-10-21T03:35:59.977Z,16.70
2018-10-21T03:38:28.360Z,16.60
2018-10-21T03:40:56.635Z,16.30
2018-10-21T03:43:24.858Z,16.10
2018-10-21T03:45:53.200Z,16.30
2018-10-21T03:48:21.435Z,16.30
2018-10-21T03:50:49.748Z,16.40
2018-10-21T03:53:17.958Z,16.30
2018-10-21T03:55:46.214Z,16.50
2018-10-21T03:58:14.576Z,16.40
2018-10-21T04:00:42.767Z,16.30
2018-10-21T04:03:11.015Z,16.30
2018-10-21T04:05:39.293Z,16.10
2018-10-21T04:08:07.599Z,16.10
2018-10-21T04:10:35.949Z,16.00
2018-10-21T04:13:04.373Z,16.10
2018-10-21T04:15:32.645Z,15.70
2018-10-21T04:18:01.030Z,15.70
2018-10-21T04:20:29.282Z,15.80
2018-10-21T04:23:01.718Z,15.60
2018-10-21T04:25:31.333Z,15.60
2018-10-21T04:28:00.451Z,15.50
2018-10-21T04:30:30.786Z,15.40
2018-10-21T04:34:03.150Z,15.80
2018-10-21T04:36:32.752Z,16.10
2018-10-21T04:40:12.499Z,15.90
2018-10-21T04:42:40.694Z,15.90
2018-10-21T04:45:09.717Z,15.70
2018-10-21T04:47:38.037Z,15.80
2018-10-21T04:50:07.630Z,15.90
2018-10-21T04:52:36.096Z,16.10
2018-10-21T04:55:06.961Z,16.20
2018-10-21T04:57:36.309Z,16.40
2018-10-21T05:00:06.710Z,16.30
2018-10-21T05:02:34.971Z,16.20
2018-10-21T05:05:03.231Z,16.30
2018-10-21T05:07:31.588Z,16.20
2018-10-21T05:09:59.823Z,16.30
2018-10-21T05:12:28.036Z,16.20
2018-10-21T05:14:56.349Z,16.20
2018-10-21T05:17:24.592Z,15.90
2018-10-21T05:19:52.910Z,15.80
2018-10-21T05:22:21.215Z,15.80
2018-10-21T05:24:49.487Z,15.60
2018-10-21T05:27:17.781Z,15.40
2018-10-21T05:29:46.099Z,15.60
2018-10-21T05:32:14.450Z,15.70
2018-10-21T05:34:42.791Z,15.90
2018-10-21T05:37:11.009Z,16.10
2018-10-21T05:39:39.232Z,16.10
2018-10-21T05:42:07.574Z,16.10
2018-10-21T05:44:35.886Z,16.10
2018-10-21T05:47:04.158Z,16.00
2018-10-21T05:49:32.567Z,16.10
2018-10-21T05:52:00.807Z,15.90
2018-10-21T05:54:29.133Z,15.80
2018-10-21T05:56:57.461Z,15.90
2018-10-21T05:59:25.702Z,16.10
2018-10-21T06:01:53.999Z,15.90
2018-10-21T06:04:22.265Z,16.10
2018-10-21T06:06:50.612Z,16.00
2018-10-21T06:09:18.890Z,15.70
2018-10-21T06:11:47.126Z,15.50
2018-10-21T06:14:15.450Z,15.60
2018-10-21T06:16:46.986Z,15.90
2018-10-21T06:19:53.823Z,15.90
2018-10-21T06:22:22.178Z,15.80
2018-10-21T06:24:51.207Z,15.80
2018-10-21T06:27:19.555Z,15.80
2018-10-21T06:29:47.871Z,15.80
2018-10-21T06:32:16.165Z,15.60
2018-10-21T06:34:44.442Z,15.60
2018-10-21T06:37:12.669Z,15.80
2018-10-21T06:39:40.903Z,15.80
2018-10-21T06:42:09.143Z,15.60
2018-10-21T06:44:37.485Z,15.70
2018-10-21T06:47:05.843Z,15.80
2018-10-21T06:49:34.090Z,15.90
2018-10-21T06:52:02.444Z,15.60
2018-10-21T06:54:30.766Z,15.40
2018-10-21T06:56:59.177Z,15.70
2018-10-21T06:59:27.366Z,15.70
2018-10-21T07:01:55.593Z,15.80
2018-10-21T07:04:23.892Z,15.80
2018-10-21T07:06:52.165Z,15.80
2018-10-21T07:09:20.394Z,15.90
2018-10-21T07:11:48.773Z,15.70
2018-10-21T07:14:17.029Z,15.70
2018-10-21T07:16:45.342Z,15.80
2018-10-21T07:19:13.633Z,16.00
2018-10-21T07:21:41.881Z,15.90
2018-10-21T07:24:10.142Z,15.90
2018-10-21T07:26:38.515Z,15.90
2018-10-21T07:29:06.774Z,15.90
2018-10-21T07:31:35.038Z,15.90
2018-10-21T07:34:03.399Z,16.00
2018-10-21T07:36:31.727Z,16.40
2018-10-21T07:38:59.941Z,16.50
2018-10-21T07:41:28.236Z,16.40
2018-10-21T07:43:56.523Z,16.30
2018-10-21T07:46:24.778Z,16.60
2018-10-21T07:48:53.275Z,16.70
2018-10-21T07:51:21.478Z,16.50
2018-10-21T07:53:49.834Z,16.50
2018-10-21T07:56:18.152Z,16.40
2018-10-21T07:58:46.415Z,16.30
2018-10-21T08:01:15.292Z,16.10
2018-10-21T08:03:43.915Z,16.40
2018-10-21T08:06:29.138Z,16.60
2018-10-21T08:08:57.495Z,16.60
2018-10-21T08:11:25.885Z,16.80
2018-10-21T08:13:54.197Z,16.80
2018-10-21T08:16:22.743Z,17.00
2018-10-21T08:18:51.590Z,17.30
2018-10-21T08:21:19.983Z,16.80
2018-10-21T08:23:48.225Z,17.20
2018-10-21T08:26:16.622Z,17.20
2018-10-21T08:28:46.645Z,17.10
2018-10-21T08:31:15.177Z,16.90
2018-10-21T08:33:43.506Z,17.30
2018-10-21T08:36:11.835Z,17.10
2018-10-21T08:38:40.194Z,17.20
2018-10-21T08:41:08.526Z,17.10
2018-10-21T08:43:36.866Z,17.40
2018-10-21T08:46:05.302Z,17.30
2018-10-21T08:48:33.631Z,17.00
2018-10-21T08:51:02.057Z,17.40
2018-10-21T08:53:30.361Z,17.50
2018-10-21T08:55:58.645Z,17.70
2018-10-21T08:58:26.919Z,17.60
2018-10-21T09:00:55.201Z,17.50
2018-10-21T09:03:23.449Z,17.60
2018-10-21T09:05:51.732Z,17.80
2018-10-21T09:08:20.068Z,17.90
2018-10-21T09:10:48.448Z,17.70
2018-10-21T09:13:16.737Z,17.50
2018-10-21T09:15:44.979Z,17.40
2018-10-21T09:18:13.270Z,17.70
2018-10-21T09:20:41.534Z,17.50
2018-10-21T09:23:09.871Z,17.50
2018-10-21T09:25:38.193Z,17.40
2018-10-21T09:28:06.635Z,17.70
2018-10-21T09:30:34.854Z,18.00
2018-10-21T09:33:03.148Z,17.80
2018-10-21T09:35:31.511Z,17.80
2018-10-21T09:37:59.886Z,17.80
2018-10-21T09:40:28.186Z,17.60
2018-10-21T09:42:56.505Z,17.60
2018-10-21T09:45:24.826Z,17.80
2018-10-21T09:47:53.125Z,17.80
2018-10-21T09:50:21.459Z,17.70
2018-10-21T09:52:49.770Z,17.80
2018-10-21T09:55:20.122Z,18.00
2018-10-21T09:57:49.485Z,18.20
2018-10-21T10:00:23.186Z,18.30
2018-10-21T10:02:56.995Z,18.80
2018-10-21T10:05:25.427Z,19.00
2018-10-21T10:07:54.564Z,19.00
2018-10-21T10:10:23.082Z,19.30
2018-10-21T10:12:51.354Z,18.90
2018-10-21T10:15:19.733Z,19.00
2018-10-21T10:17:48.243Z,18.90
2018-10-21T10:20:16.502Z,19.10
2018-10-21T10:22:44.837Z,19.60
2018-10-21T10:25:13.240Z,20.10
2018-10-21T10:27:41.816Z,20.30
2018-10-21T10:30:11.366Z,20.00
2018-10-21T10:32:40.965Z,19.60
2018-10-21T10:35:10.193Z,19.20
2018-10-21T10:37:38.490Z,19.40
2018-10-21T10:40:08.027Z,19.10
2018-10-21T10:42:36.285Z,19.30
2018-10-21T10:45:04.806Z,19.30
2018-10-21T10:47:33.110Z,19.40
2018-10-21T10:50:01.366Z,19.10
2018-10-21T10:52:29.619Z,18.80
2018-10-21T10:54:57.961Z,18.80
2018-10-21T10:57:26.260Z,18.60
2018-10-21T10:59:54.732Z,18.80
2018-10-21T11:02:22.866Z,19.10
2018-10-21T11:04:51.178Z,19.10
2018-10-21T11:07:19.530Z,19.00
2018-10-21T11:09:47.964Z,19.10
2018-10-21T11:12:16.275Z,19.10
2018-10-21T11:14:44.714Z,19.70
2018-10-21T11:17:13.002Z,19.80
2018-10-21T11:19:41.346Z,19.80
2018-10-21T11:22:09.664Z,19.60
2018-10-21T11:24:43.535Z,19.80
2018-10-21T11:27:11.853Z,20.00
2018-10-21T11:29:40.329Z,19.60
2018-10-21T11:32:08.716Z,19.00
2018-10-21T11:34:37.407Z,18.70
2018-10-21T11:37:05.781Z,18.10
2018-10-21T11:39:34.048Z,18.10
2018-10-21T11:42:02.357Z,18.30
2018-10-21T11:44:30.689Z,18.50
2018-10-21T11:46:58.954Z,19.00
2018-10-21T11:49:27.268Z,19.20
2018-10-21T11:51:55.782Z,19.50
2018-10-21T11:54:24.343Z,19.30
2018-10-21T11:56:52.617Z,19.30
2018-10-21T11:59:20.895Z,19.50
2018-10-21T12:01:49.155Z,19.50
2018-10-21T12:04:17.469Z,19.30
2018-10-21T12:06:45.862Z,19.10
2018-10-21T12:09:14.738Z,19.40
2018-10-21T12:11:43.122Z,19.00
2018-10-21T12:14:11.541Z,19.30
2018-10-21T12:16:39.911Z,19.00
2018-10-21T12:19:08.279Z,19.30
2018-10-21T12:21:36.777Z,19.50
2018-10-21T12:24:05.490Z,19.90
2018-10-21T12:26:34.930Z,19.90
2018-10-21T12:29:04.062Z,20.00
2018-10-21T12:31:32.342Z,19.60
2018-10-21T12:34:00.696Z,19.80
2018-10-21T12:36:28.966Z,19.90
2018-10-21T12:38:57.229Z,19.90
2018-10-21T12:41:25.537Z,20.00
2018-10-21T12:43:53.830Z,19.70
2018-10-21T12:46:22.258Z,19.30
2018-10-21T12:48:50.597Z,19.40
2018-10-21T12:51:18.868Z,19.60
2018-10-21T12:53:47.137Z,19.60
2018-10-21T12:56:15.395Z,19.60
2018-10-21T12:58:43.720Z,19.90
2018-10-21T13:01:12.015Z,20.00
2018-10-21T13:03:40.247Z,19.90
2018-10-21T13:06:08.578Z,20.10
2018-10-21T13:08:37.042Z,19.80
2018-10-21T13:11:05.303Z,19.60
2018-10-21T13:13:33.543Z,19.30
2018-10-21T13:16:01.781Z,19.30
2018-10-21T13:18:30.118Z,19.50
2018-10-21T13:20:58.367Z,19.40
2018-10-21T13:23:26.650Z,19.50
2018-10-21T13:25:55.189Z,19.50
2018-10-21T13:28:23.627Z,19.50
2018-10-21T13:30:51.726Z,20.10
2018-10-21T13:33:19.972Z,20.00
2018-10-21T13:35:48.315Z,19.90
2018-10-21T13:38:16.619Z,19.90
2018-10-21T13:40:44.906Z,20.00
2018-10-21T13:43:13.163Z,20.30
2018-10-21T13:45:41.566Z,19.90
2018-10-21T13:48:09.815Z,19.90
2018-10-21T13:50:38.194Z,19.90
2018-10-21T13:53:06.553Z,19.90
2018-10-21T13:55:34.793Z,20.00
2018-10-21T13:58:03.170Z,20.20
2018-10-21T14:00:31.444Z,20.00
2018-10-21T14:02:59.768Z,19.80
2018-10-21T14:05:28.050Z,19.80
2018-10-21T14:07:56.321Z,19.70
2018-10-21T14:10:24.636Z,19.40
2018-10-21T14:12:52.964Z,19.60
2018-10-21T14:15:21.242Z,19.60
2018-10-21T14:17:49.571Z,19.90
2018-10-21T14:20:17.802Z,19.80
2018-10-21T14:22:46.154Z,19.70
2018-10-21T14:25:14.558Z,19.80
2018-10-21T14:27:43.095Z,19.60
2018-10-21T14:30:11.471Z,20.10
2018-10-21T14:32:39.897Z,19.90
2018-10-21T14:35:09.524Z,19.80
2018-10-21T14:37:38.220Z,19.90
2018-10-21T14:40:08.678Z,19.80
2018-10-21T14:42:36.902Z,19.60
2018-10-21T14:45:06.719Z,19.80
2018-10-21T14:47:34.996Z,19.60
2018-10-21T14:50:03.274Z,19.50
2018-10-21T14:52:31.541Z,19.60
2018-10-21T14:54:59.891Z,19.90
2018-10-21T14:57:28.163Z,19.80
2018-10-21T14:59:56.431Z,20.10
2018-10-21T15:02:24.742Z,20.30
2018-10-21T15:04:52.998Z,20.30
2018-10-21T15:07:21.301Z,20.30
2018-10-21T15:09:49.758Z,20.20
2018-10-21T15:12:17.949Z,20.30
2018-10-21T15:14:46.225Z,20.00
2018-10-21T15:17:14.489Z,19.40
2018-10-21T15:19:42.883Z,19.40
2018-10-21T15:22:11.274Z,19.70
2018-10-21T15:24:39.520Z,19.30
2018-10-21T15:27:07.799Z,19.30
2018-10-21T15:29:36.104Z,19.50
2018-10-21T15:32:04.492Z,19.70
2018-10-21T15:34:32.720Z,20.00
2018-10-21T15:37:00.935Z,19.60
2018-10-21T15:39:29.327Z,19.60
2018-10-21T15:41:57.577Z,19.90
2018-10-21T15:44:25.822Z,20.10
2018-10-21T15:46:54.140Z,20.30
2018-10-21T15:49:22.406Z,20.10
2018-10-21T15:51:50.807Z,19.90
2018-10-21T15:54:19.099Z,20.10
2018-10-21T15:56:47.592Z,20.30
2018-10-21T15:59:15.929Z,20.50
2018-10-21T16:01:44.357Z,20.50
2018-10-21T16:04:13.538Z,20.60
2018-10-21T16:06:41.823Z,20.60
2018-10-21T16:09:11.975Z,20.50
2018-10-21T16:11:40.343Z,20.40
2018-10-21T16:14:08.841Z,20.30
2018-10-21T16:16:37.116Z,20.20
2018-10-21T16:19:05.494Z,20.00
2018-10-21T16:21:33.786Z,20.10
2018-10-21T16:24:02.058Z,20.00
2018-10-21T16:26:30.453Z,19.90
2018-10-21T16:28:58.838Z,20.00
2018-10-21T16:31:27.083Z,20.10
2018-10-21T16:33:55.350Z,20.30
2018-10-21T16:36:23.712Z,19.70
2018-10-21T16:38:52.055Z,19.60
2018-10-21T16:41:21.310Z,19.30
2018-10-21T16:43:49.589Z,19.40
2018-10-21T16:46:17.854Z,19.40
2018-10-21T16:48:46.154Z,19.70
2018-10-21T16:51:14.572Z,19.80
2018-10-21T16:53:42.767Z,20.00
2018-10-21T16:56:11.161Z,19.90
2018-10-21T16:58:39.562Z,19.90
2018-10-21T17:01:08.110Z,19.70
2018-10-21T17:03:36.284Z,19.70
2018-10-21T17:06:04.633Z,19.60
2018-10-21T17:08:33.318Z,19.40
2018-10-21T17:11:01.642Z,19.40
2018-10-21T17:13:29.959Z,19.30
2018-10-21T17:15:58.315Z,19.20
2018-10-21T17:18:26.586Z,19.10
2018-10-21T17:20:54.876Z,19.00
2018-10-21T17:23:23.226Z,19.20
2018-10-21T17:25:51.502Z,19.30
2018-10-21T17:28:19.911Z,19.30
2018-10-21T17:30:48.123Z,19.20
2018-10-21T17:33:16.397Z,19.00
2018-10-21T17:35:44.717Z,18.90
2018-10-21T17:38:13.079Z,18.70
2018-10-21T17:40:41.438Z,18.70
2018-10-21T17:43:09.726Z,18.80
2018-10-21T17:45:37.922Z,18.80
2018-10-21T17:48:06.170Z,18.80
2018-10-21T17:50:34.419Z,18.90
2018-10-21T17:53:02.674Z,18.80
2018-10-21T17:55:30.978Z,18.70
2018-10-21T17:57:59.377Z,18.80
2018-10-21T18:00:27.682Z,18.80
2018-10-21T18:02:55.963Z,18.60
2018-10-21T18:05:25.271Z,18.40
2018-10-21T18:07:53.525Z,18.50
2018-10-21T18:10:21.865Z,18.40
2018-10-21T18:12:50.157Z,18.30
2018-10-21T18:15:18.553Z,18.30
2018-10-21T18:17:46.878Z,18.10
2018-10-21T18:20:15.262Z,17.90
2018-10-21T18:22:43.538Z,18.00
2018-10-21T18:25:11.930Z,18.10
2018-10-21T18:27:40.662Z,18.20
2018-10-21T18:30:10.214Z,18.00
2018-10-21T18:32:38.535Z,18.00
2018-10-21T18:35:08.170Z,17.90
2018-10-21T18:37:36.533Z,17.70
2018-10-21T18:40:05.916Z,17.80
2018-10-21T18:42:34.098Z,17.80
2018-10-21T18:45:02.330Z,17.80
2018-10-21T18:47:30.658Z,17.70
2018-10-21T18:49:58.940Z,17.80
2018-10-21T18:52:27.193Z,17.90
2018-10-21T18:54:55.480Z,17.70
2018-10-21T18:57:23.733Z,17.50
2018-10-21T18:59:52.060Z,17.60
2018-10-21T19:02:20.293Z,17.60
2018-10-21T19:04:48.659Z,17.70
2018-10-21T19:07:17.147Z,17.80
2018-10-21T19:09:45.391Z,18.00
2018-10-21T19:12:13.682Z,18.00
2018-10-21T19:14:42.006Z,17.90
2018-10-21T19:17:10.330Z,17.80
2018-10-21T19:19:38.686Z,17.90
2018-10-21T19:22:06.969Z,18.00
2018-10-21T19:24:35.398Z,18.20
2018-10-21T19:27:03.759Z,18.20
2018-10-21T19:29:32.021Z,18.20
2018-10-21T19:32:00.282Z,18.30
2018-10-21T19:34:28.696Z,18.30
2018-10-21T19:36:56.959Z,18.20
2018-10-21T19:39:25.210Z,18.20
2018-10-21T19:41:53.787Z,18.20
2018-10-21T19:44:22.734Z,18.20
2018-10-21T19:46:51.023Z,18.10
2018-10-21T19:49:19.294Z,18.10
2018-10-21T19:51:47.657Z,17.90
2018-10-21T19:54:15.940Z,17.90
2018-10-21T19:56:44.320Z,17.80
2018-10-21T19:59:12.558Z,17.80
2018-10-21T20:01:40.928Z,17.90
2018-10-21T20:04:09.343Z,17.90
2018-10-21T20:06:37.524Z,18.00
2018-10-21T20:09:08.719Z,18.10
2018-10-21T20:11:37.569Z,18.20
2018-10-21T20:14:05.957Z,18.30
2018-10-21T20:16:34.279Z,18.10
2018-10-21T20:19:02.675Z,18.20
2018-10-21T20:21:30.873Z,18.20
2018-10-21T20:23:59.340Z,18.10
2018-10-21T20:26:27.690Z,17.90
2018-10-21T20:28:56.054Z,17.70
2018-10-21T20:31:24.453Z,17.60
2018-10-21T20:33:52.860Z,17.60
2018-10-21T20:36:21.025Z,17.50
2018-10-21T20:38:49.390Z,17.40
2018-10-21T20:41:17.683Z,17.30
2018-10-21T20:43:46.532Z,17.30
2018-10-21T20:46:14.922Z,17.20
2018-10-21T20:48:43.142Z,17.20
2018-10-21T20:51:11.491Z,17.10
2018-10-21T20:53:40.865Z,17.10
2018-10-21T20:56:09.127Z,17.10
2018-10-21T20:58:37.438Z,16.90
2018-10-21T21:01:06.273Z,16.80
2018-10-21T21:03:34.553Z,16.70
2018-10-21T21:06:02.852Z,16.70
2018-10-21T21:08:31.066Z,16.70
2018-10-21T21:10:59.341Z,16.60
2018-10-21T21:13:36.283Z,16.60
2018-10-21T21:16:05.076Z,16.80
2018-10-21T21:18:33.330Z,16.80
2018-10-21T21:21:01.600Z,16.80
2018-10-21T21:23:29.834Z,16.80
2018-10-21T21:25:58.114Z,17.00
2018-10-21T21:28:26.366Z,17.20
2018-10-21T21:30:54.662Z,17.30
2018-10-21T21:33:22.965Z,17.40
2018-10-21T21:35:58.289Z,17.40
2018-10-21T21:38:26.523Z,17.30
2018-10-21T21:40:54.750Z,17.40
2018-10-21T21:43:23.087Z,17.50
2018-10-21T21:45:51.362Z,17.60
2018-10-21T21:48:19.687Z,17.60
2018-10-21T21:50:47.996Z,17.60
2018-10-21T21:53:16.222Z,17.50
2018-10-21T21:55:44.545Z,17.40
2018-10-21T21:58:12.896Z,17.50
2018-10-21T22:00:41.123Z,17.70
2018-10-21T22:03:09.342Z,17.70
2018-10-21T22:05:37.573Z,17.80
2018-10-21T22:08:05.894Z,17.70
2018-10-21T22:10:34.174Z,17.80
2018-10-21T22:13:02.430Z,17.80
2018-10-21T22:15:30.701Z,17.80
2018-10-21T22:17:59.000Z,17.70
2018-10-21T22:20:27.273Z,17.60
2018-10-21T22:22:55.528Z,17.50
2018-10-21T22:25:23.805Z,17.70
2018-10-21T22:27:52.049Z,17.80
2018-10-21T22:30:20.272Z,17.70
2018-10-21T22:32:48.636Z,18.00
2018-10-21T22:35:16.910Z,18.00
2018-10-21T22:37:45.443Z,17.90
2018-10-21T22:40:13.762Z,18.00
2018-10-21T22:42:41.982Z,17.80
2018-10-21T22:45:10.653Z,17.80
2018-10-21T22:47:39.006Z,17.90
2018-10-21T22:50:08.933Z,17.70
2018-10-21T22:52:37.237Z,17.80
2018-10-21T22:55:06.082Z,17.50
2018-10-21T22:57:34.374Z,17.70
2018-10-21T23:00:02.685Z,17.80
2018-10-21T23:02:30.902Z,17.80
2018-10-21T23:04:59.206Z,18.10
2018-10-21T23:07:27.426Z,18.10
2018-10-21T23:09:55.747Z,18.00
2018-10-21T23:12:23.953Z,17.90
2018-10-21T23:14:52.594Z,18.00
2018-10-21T23:17:20.894Z,18.10
2018-10-21T23:19:50.171Z,18.30
2018-10-21T23:22:18.504Z,18.20
2018-10-21T23:24:46.697Z,18.10
2018-10-21T23:27:15.019Z,18.30
2018-10-21T23:29:43.882Z,18.40
2018-10-21T23:32:12.262Z,18.40
2018-10-21T23:34:40.560Z,18.50
2018-10-21T23:37:08.893Z,18.60
2018-10-21T23:39:37.218Z,18.50
2018-10-21T23:42:05.748Z,18.30
2018-10-21T23:44:34.032Z,18.20
2018-10-21T23:47:02.346Z,18.00
2018-10-21T23:49:30.625Z,18.20
2018-10-21T23:51:58.961Z,18.30
2018-10-21T23:54:27.180Z,18.40
2018-10-21T23:56:55.491Z,18.50
2018-10-21T23:59:23.782Z,18.60
